Time;durP1;ratioP1;P1;durP2;ratioP2;P2;SDS_P1;SDS_P2;PMS_P1;PMS_P2;Temp;Humidity;BMP_temperature;BMP_pressure;BME280_temperature;BME280_humidity;BME280_pressure;Samples;Min_cycle;Max_cycle;Signal;HPM_P1;HPM_P2
2021/05/09 00:00:11;;;;;;;1.15;1.15;;;;;;;;;;5091362;28;20433;-67
2021/05/09 00:02:37;;;;;;;0.50;0.50;;;;;;;;;;5091761;28;20222;-68
2021/05/09 00:05:03;;;;;;;0.50;0.50;;;;;;;;;;5091773;28;20166;-65
2021/05/09 00:07:29;;;;;;;0.57;0.57;;;;;;;;;;5073388;28;20919;-67
2021/05/09 00:09:55;;;;;;;0.73;0.70;;;;;;;;;;5091017;28;20208;-66
2021/05/09 00:12:21;;;;;;;1.00;0.90;;;;;;;;;;5091720;28;20795;-67
2021/05/09 00:14:47;;;;;;;0.70;0.70;;;;;;;;;;5092004;28;20410;-68
2021/05/09 00:17:13;;;;;;;1.23;1.13;;;;;;;;;;5092019;28;20497;-67
2021/05/09 00:19:39;;;;;;;1.63;1.20;;;;;;;;;;5090899;28;20404;-67
2021/05/09 00:22:05;;;;;;;1.47;1.17;;;;;;;;;;5091179;28;20436;-68
2021/05/09 00:24:31;;;;;;;1.57;0.90;;;;;;;;;;5073332;28;20524;-67
2021/05/09 00:26:57;;;;;;;0.85;0.85;;;;;;;;;;5091526;28;20413;-67
2021/05/09 00:29:23;;;;;;;1.40;0.90;;;;;;;;;;5090808;28;20198;-68
2021/05/09 00:31:49;;;;;;;2.03;1.13;;;;;;;;;;5091357;28;20812;-68
2021/05/09 00:34:15;;;;;;;0.70;0.70;;;;;;;;;;5092789;28;20436;-68
2021/05/09 00:36:41;;;;;;;0.77;0.70;;;;;;;;;;5095612;28;20205;-67
2021/05/09 00:39:07;;;;;;;0.60;0.60;;;;;;;;;;5094870;28;20396;-67
2021/05/09 00:41:33;;;;;;;0.73;0.73;;;;;;;;;;5095434;28;20681;-67
2021/05/09 00:43:59;;;;;;;0.88;0.88;;;;;;;;;;5095264;28;20405;-67
2021/05/09 00:46:25;;;;;;;0.88;0.80;;;;;;;;;;5095440;28;20171;-67
2021/05/09 00:48:51;;;;;;;1.03;1.03;;;;;;;;;;5094659;28;21039;-63
2021/05/09 00:51:17;;;;;;;0.80;0.80;;;;;;;;;;5095141;28;20512;-66
2021/05/09 00:53:44;;;;;;;0.80;0.80;;;;;;;;;;5095178;28;20163;-68
2021/05/09 00:56:13;;;;;;;1.00;1.00;;;;;;;;;;5095683;28;20182;-67
2021/05/09 00:58:44;;;;;;;0.60;0.60;;;;;;;;;;5094950;28;20220;-65
2021/05/09 01:01:12;;;;;;;1.95;1.85;;;;;;;;;;5094954;28;20565;-67
2021/05/09 01:03:39;;;;;;;1.23;1.20;;;;;;;;;;5095171;28;20173;-67
2021/05/09 01:06:06;;;;;;;2.00;1.20;;;;;;;;;;5094974;28;20170;-67
2021/05/09 01:08:34;;;;;;;0.60;0.60;;;;;;;;;;5094774;28;20204;-67
2021/05/09 01:11:00;;;;;;;0.90;0.90;;;;;;;;;;5094433;28;20186;-67
2021/05/09 01:13:26;;;;;;;0.50;0.50;;;;;;;;;;5095002;28;20170;-67
2021/05/09 01:15:52;;;;;;;0.90;0.90;;;;;;;;;;5094919;28;20179;-67
2021/05/09 01:18:18;;;;;;;0.70;0.63;;;;;;;;;;5094663;28;20167;-66
2021/05/09 01:20:44;;;;;;;0.75;0.75;;;;;;;;;;5093329;28;20440;-68
2021/05/09 01:23:10;;;;;;;0.63;0.63;;;;;;;;;;5094553;28;20214;-67
2021/05/09 01:25:36;;;;;;;2.80;0.67;;;;;;;;;;5094709;28;20661;-68
2021/05/09 01:28:03;;;;;;;0.68;0.63;;;;;;;;;;5094459;28;20552;-68
2021/05/09 01:30:29;;;;;;;0.65;0.60;;;;;;;;;;5094120;28;20171;-67
2021/05/09 01:32:55;;;;;;;0.73;0.73;;;;;;;;;;5094794;28;20574;-66
2021/05/09 01:35:21;;;;;;;0.60;0.60;;;;;;;;;;5095006;28;20166;-65
2021/05/09 01:37:47;;;;;;;1.10;1.10;;;;;;;;;;5092497;28;20162;-67
2021/05/09 01:40:13;;;;;;;2.67;1.20;;;;;;;;;;5093729;28;20166;-66
2021/05/09 01:42:40;;;;;;;0.50;0.50;;;;;;;;;;5094251;28;20197;-66
2021/05/09 01:45:07;;;;;;;0.70;0.70;;;;;;;;;;5094153;28;20162;-66
2021/05/09 01:47:36;;;;;;;0.80;0.80;;;;;;;;;;5094388;28;20665;-68
2021/05/09 01:50:02;;;;;;;0.60;0.60;;;;;;;;;;5093664;28;20174;-66
2021/05/09 01:52:28;;;;;;;0.80;0.80;;;;;;;;;;5075654;28;20340;-66
2021/05/09 01:54:54;;;;;;;1.67;0.67;;;;;;;;;;5094491;28;20405;-66
2021/05/09 01:57:20;;;;;;;0.88;0.88;;;;;;;;;;5093950;28;20911;-67
2021/05/09 01:59:46;;;;;;;1.70;1.60;;;;;;;;;;5093349;28;20179;-67
2021/05/09 02:02:12;;;;;;;0.80;0.80;;;;;;;;;;5093993;28;20436;-66
2021/05/09 02:04:38;;;;;;;0.90;0.60;;;;;;;;;;5093875;28;20412;-66
2021/05/09 02:07:04;;;;;;;0.82;0.82;;;;;;;;;;5093744;28;20178;-66
2021/05/09 02:09:30;;;;;;;0.60;0.60;;;;;;;;;;5075030;28;20225;-67
2021/05/09 02:11:56;;;;;;;0.83;0.80;;;;;;;;;;5093842;28;20197;-68
2021/05/09 02:14:22;;;;;;;1.90;1.53;;;;;;;;;;5093776;28;20432;-67
2021/05/09 02:16:48;;;;;;;0.87;0.87;;;;;;;;;;5093593;28;20405;-67
2021/05/09 02:19:14;;;;;;;1.37;1.27;;;;;;;;;;5092921;28;20404;-68
2021/05/09 02:21:40;;;;;;;0.85;0.85;;;;;;;;;;5093418;28;20473;-67
2021/05/09 02:24:06;;;;;;;0.63;0.63;;;;;;;;;;5093607;28;20850;-67
2021/05/09 02:26:33;;;;;;;1.60;1.50;;;;;;;;;;5093343;28;20409;-67
2021/05/09 02:28:58;;;;;;;0.60;0.60;;;;;;;;;;5092541;28;20258;-68
2021/05/09 02:31:24;;;;;;;1.03;0.93;;;;;;;;;;5093407;28;20657;-68
2021/05/09 02:33:50;;;;;;;0.80;0.80;;;;;;;;;;5093332;28;20396;-66
2021/05/09 02:36:16;;;;;;;0.70;0.70;;;;;;;;;;5093237;28;20781;-68
2021/05/09 02:38:42;;;;;;;0.70;0.70;;;;;;;;;;5093039;28;20174;-66
2021/05/09 02:41:08;;;;;;;1.47;1.37;;;;;;;;;;5092762;28;20451;-68
2021/05/09 02:43:34;;;;;;;1.00;0.82;;;;;;;;;;5093198;28;21114;-67
2021/05/09 02:46:00;;;;;;;0.97;0.70;;;;;;;;;;5093129;28;20166;-67
2021/05/09 02:48:26;;;;;;;0.83;0.83;;;;;;;;;;5092924;28;20440;-67
2021/05/09 02:50:52;;;;;;;1.20;1.20;;;;;;;;;;5092266;28;20404;-66
2021/05/09 02:53:18;;;;;;;0.50;0.50;;;;;;;;;;5092757;28;20931;-65
2021/05/09 02:55:44;;;;;;;1.27;1.27;;;;;;;;;;5092771;28;20170;-67
2021/05/09 02:58:10;;;;;;;1.10;1.10;;;;;;;;;;5092221;28;20177;-68
2021/05/09 03:00:36;;;;;;;0.80;0.80;;;;;;;;;;5092188;28;20403;-67
2021/05/09 03:03:02;;;;;;;0.67;0.67;;;;;;;;;;5092597;28;20485;-68
2021/05/09 03:05:28;;;;;;;0.90;0.77;;;;;;;;;;5093020;28;20408;-68
2021/05/09 03:07:54;;;;;;;1.17;1.17;;;;;;;;;;5092524;28;20458;-67
2021/05/09 03:10:20;;;;;;;0.70;0.70;;;;;;;;;;5091802;28;20408;-68
2021/05/09 03:12:46;;;;;;;0.80;0.80;;;;;;;;;;5092454;28;20412;-67
2021/05/09 03:15:12;;;;;;;1.40;1.30;;;;;;;;;;5092468;28;20193;-68
2021/05/09 03:17:38;;;;;;;1.13;1.13;;;;;;;;;;5092466;28;20404;-68
2021/05/09 03:20:05;;;;;;;1.50;1.33;;;;;;;;;;5073543;28;20173;-67
2021/05/09 03:22:31;;;;;;;0.60;0.60;;;;;;;;;;5092371;28;20477;-67
2021/05/09 03:24:57;;;;;;;0.80;0.80;;;;;;;;;;5092269;28;20171;-67
2021/05/09 03:27:23;;;;;;;1.07;1.07;;;;;;;;;;5092157;28;20923;-67
2021/05/09 03:29:49;;;;;;;1.17;1.10;;;;;;;;;;5091507;28;20498;-67
2021/05/09 03:32:15;;;;;;;1.27;1.27;;;;;;;;;;5091906;28;20935;-67
2021/05/09 03:34:41;;;;;;;0.73;0.73;;;;;;;;;;5092181;28;20400;-67
2021/05/09 03:37:07;;;;;;;1.03;1.03;;;;;;;;;;5092106;28;20175;-67
2021/05/09 03:39:33;;;;;;;1.80;1.10;;;;;;;;;;5091301;28;20412;-67
2021/05/09 03:41:59;;;;;;;0.73;0.73;;;;;;;;;;5092198;28;20432;-66
2021/05/09 03:44:25;;;;;;;1.80;1.73;;;;;;;;;;5092132;28;20440;-67
2021/05/09 03:46:50;;;;;;;1.30;1.30;;;;;;;;;;5091968;28;20487;-68
2021/05/09 03:49:16;;;;;;;1.50;1.50;;;;;;;;;;5091273;28;20819;-67
2021/05/09 03:51:42;;;;;;;2.37;1.07;;;;;;;;;;5094899;28;20477;-66
2021/05/09 03:54:08;;;;;;;2.97;1.13;;;;;;;;;;5108754;28;20397;-67
2021/05/09 03:56:34;;;;;;;3.53;1.70;;;;;;;;;;5105046;28;20487;-66
2021/05/09 03:59:00;;;;;;;0.77;0.70;;;;;;;;;;5097901;28;20170;-66
2021/05/09 04:01:26;;;;;;;1.10;1.00;;;;;;;;;;5096588;28;20437;-66
2021/05/09 04:03:52;;;;;;;1.03;0.73;;;;;;;;;;5092724;28;20458;-67
2021/05/09 04:06:18;;;;;;;1.42;1.33;;;;;;;;;;5091892;28;20408;-67
2021/05/09 04:08:44;;;;;;;1.87;1.77;;;;;;;;;;5091429;28;20205;-64
2021/05/09 04:11:12;;;;;;;0.60;0.60;;;;;;;;;;5091748;28;20405;-67
2021/05/09 04:13:48;;;;;;;0.77;0.77;;;;;;;;;;5092107;28;20408;-69
2021/05/09 04:16:15;;;;;;;1.75;1.52;;;;;;;;;;5091716;28;20174;-68
2021/05/09 04:18:41;;;;;;;1.27;1.17;;;;;;;;;;5091582;28;20181;-68
2021/05/09 04:21:07;;;;;;;0.70;0.70;;;;;;;;;;5090884;28;20209;-67
2021/05/09 04:23:33;;;;;;;0.70;0.70;;;;;;;;;;5091521;28;20193;-68
2021/05/09 04:25:59;;;;;;;1.17;1.10;;;;;;;;;;5091450;28;20178;-67
2021/05/09 04:28:25;;;;;;;0.82;0.80;;;;;;;;;;5091400;28;20221;-67
2021/05/09 04:30:54;;;;;;;0.85;0.85;;;;;;;;;;5090865;28;20206;-67
2021/05/09 04:33:29;;;;;;;0.60;0.60;;;;;;;;;;5091439;28;20306;-67
2021/05/09 04:35:55;;;;;;;0.75;0.73;;;;;;;;;;5091621;28;20202;-68
2021/05/09 04:38:21;;;;;;;0.95;0.95;;;;;;;;;;5091322;28;20171;-67
2021/05/09 04:40:48;;;;;;;0.50;0.50;;;;;;;;;;5090751;28;20223;-67
2021/05/09 04:43:21;;;;;;;0.90;0.90;;;;;;;;;;5091287;28;20200;-67
2021/05/09 04:45:51;;;;;;;0.98;0.98;;;;;;;;;;5091358;28;20166;-67
2021/05/09 04:48:17;;;;;;;1.00;0.90;;;;;;;;;;5091112;28;20224;-67
2021/05/09 04:50:44;;;;;;;0.95;0.93;;;;;;;;;;5090647;28;20630;-67
2021/05/09 04:53:23;;;;;;;1.05;0.95;;;;;;;;;;5091087;28;20522;-66
2021/05/09 04:55:49;;;;;;;1.05;1.05;;;;;;;;;;5091194;28;20183;-67
2021/05/09 04:58:15;;;;;;;0.82;0.80;;;;;;;;;;5091174;28;20171;-66
2021/05/09 05:00:41;;;;;;;0.80;0.80;;;;;;;;;;5090445;28;20171;-67
2021/05/09 05:03:07;;;;;;;0.90;0.90;;;;;;;;;;5091110;28;20186;-67
2021/05/09 05:05:33;;;;;;;1.47;1.37;;;;;;;;;;5091145;28;20174;-67
2021/05/09 05:07:59;;;;;;;1.20;1.10;;;;;;;;;;5072919;28;20998;-67
2021/05/09 05:10:25;;;;;;;0.53;0.53;;;;;;;;;;5090413;28;20397;-68
2021/05/09 05:12:51;;;;;;;1.00;0.80;;;;;;;;;;5089780;28;20469;-67
2021/05/09 05:15:17;;;;;;;0.70;0.70;;;;;;;;;;5091068;28;20432;-68
2021/05/09 05:17:43;;;;;;;1.83;1.02;;;;;;;;;;5090860;28;20653;-67
2021/05/09 05:20:10;;;;;;;0.80;0.80;;;;;;;;;;5091322;28;20178;-67
2021/05/09 05:22:36;;;;;;;0.63;0.63;;;;;;;;;;5094818;28;20489;-67
2021/05/09 05:25:02;;;;;;;1.90;1.23;;;;;;;;;;5094793;28;20171;-67
2021/05/09 05:27:28;;;;;;;1.17;1.07;;;;;;;;;;5094631;28;20339;-67
2021/05/09 05:29:54;;;;;;;0.90;0.90;;;;;;;;;;5093827;28;20460;-67
2021/05/09 05:32:20;;;;;;;0.70;0.70;;;;;;;;;;5094600;28;20485;-67
2021/05/09 05:34:46;;;;;;;1.65;1.55;;;;;;;;;;5094602;28;20400;-66
2021/05/09 05:37:12;;;;;;;0.95;0.77;;;;;;;;;;5094406;28;20167;-67
2021/05/09 05:39:38;;;;;;;1.00;1.00;;;;;;;;;;5093808;28;20218;-67
2021/05/09 05:42:04;;;;;;;1.05;1.05;;;;;;;;;;5094320;28;20244;-67
2021/05/09 05:44:30;;;;;;;0.73;0.73;;;;;;;;;;5094291;28;20174;-67
2021/05/09 05:46:56;;;;;;;2.42;1.15;;;;;;;;;;5094233;28;20221;-67
2021/05/09 05:49:22;;;;;;;1.20;1.10;;;;;;;;;;5093524;28;20206;-65
2021/05/09 05:51:48;;;;;;;1.13;1.00;;;;;;;;;;5114907;22;20904;-62
2021/05/09 05:54:14;;;;;;;6.63;1.30;;;;;;;;;;5094011;28;20261;-62
2021/05/09 05:56:40;;;;;;;1.13;1.13;;;;;;;;;;5094201;28;20174;-62
2021/05/09 05:59:06;;;;;;;0.40;0.40;;;;;;;;;;5093364;28;20698;-62
2021/05/09 06:01:32;;;;;;;0.90;0.90;;;;;;;;;;5093919;28;20397;-62
2021/05/09 06:03:58;;;;;;;0.80;0.80;;;;;;;;;;5093875;28;20432;-62
2021/05/09 06:06:24;;;;;;;1.10;1.07;;;;;;;;;;5093698;28;20209;-62
2021/05/09 06:08:52;;;;;;;0.70;0.70;;;;;;;;;;5093255;28;21004;-62
2021/05/09 06:11:18;;;;;;;1.00;0.90;;;;;;;;;;5093895;28;20412;-62
2021/05/09 06:13:44;;;;;;;0.50;0.50;;;;;;;;;;5093840;28;20218;-62
2021/05/09 06:16:10;;;;;;;1.58;1.48;;;;;;;;;;5093608;28;20204;-62
2021/05/09 06:18:36;;;;;;;0.98;0.88;;;;;;;;;;5093383;28;20179;-62
2021/05/09 06:21:02;;;;;;;1.80;1.70;;;;;;;;;;5092936;28;20189;-62
2021/05/09 06:23:28;;;;;;;1.63;1.50;;;;;;;;;;5093622;28;20194;-62
2021/05/09 06:25:55;;;;;;;1.27;1.20;;;;;;;;;;5093538;28;20171;-62
2021/05/09 06:28:21;;;;;;;2.35;0.80;;;;;;;;;;5093348;28;20469;-62
2021/05/09 06:30:47;;;;;;;0.63;0.63;;;;;;;;;;5092578;28;20265;-62
2021/05/09 06:33:14;;;;;;;1.33;1.25;;;;;;;;;;5092376;28;20429;-62
2021/05/09 06:35:40;;;;;;;0.80;0.80;;;;;;;;;;5093322;28;20171;-63
2021/05/09 06:38:07;;;;;;;0.68;0.68;;;;;;;;;;5093325;28;20225;-63
2021/05/09 06:40:34;;;;;;;1.50;1.40;;;;;;;;;;5092711;28;20178;-63
2021/05/09 06:43:01;;;;;;;0.80;0.80;;;;;;;;;;5093114;28;20194;-62
2021/05/09 06:45:28;;;;;;;1.73;1.35;;;;;;;;;;5093077;28;20178;-63
2021/05/09 06:47:54;;;;;;;1.15;1.15;;;;;;;;;;5092939;28;20178;-63
2021/05/09 06:50:21;;;;;;;1.40;1.35;;;;;;;;;;5092474;28;20197;-63
2021/05/09 06:52:47;;;;;;;0.70;0.70;;;;;;;;;;5092748;28;20208;-63
2021/05/09 06:55:13;;;;;;;1.48;1.23;;;;;;;;;;5054585;28;20184;-63
2021/05/09 06:57:40;;;;;;;2.65;0.95;;;;;;;;;;5071761;28;20212;-63
2021/05/09 07:00:07;;;;;;;1.07;0.97;;;;;;;;;;5071405;28;20173;-63
2021/05/09 07:02:34;;;;;;;3.37;1.70;;;;;;;;;;5071856;28;20425;-62
2021/05/09 07:05:00;;;;;;;1.07;1.07;;;;;;;;;;5072020;28;20402;-63
2021/05/09 07:07:26;;;;;;;3.10;1.30;;;;;;;;;;5072066;28;20924;-63
2021/05/09 07:09:52;;;;;;;1.03;1.00;;;;;;;;;;5071094;28;20217;-63
2021/05/09 07:12:18;;;;;;;1.03;1.03;;;;;;;;;;5071770;28;20905;-63
2021/05/09 07:14:44;;;;;;;1.45;1.35;;;;;;;;;;5068506;28;20437;-63
2021/05/09 07:17:11;;;;;;;1.10;1.10;;;;;;;;;;5073581;28;20179;-63
2021/05/09 07:19:37;;;;;;;2.70;1.47;;;;;;;;;;5070934;28;20410;-64
2021/05/09 07:22:08;;;;;;;1.40;1.40;;;;;;;;;;5071604;28;20885;-64
2021/05/09 07:24:34;;;;;;;1.00;0.90;;;;;;;;;;5071415;28;20417;-64
2021/05/09 07:27:00;;;;;;;2.20;1.03;;;;;;;;;;5071376;28;20402;-64
2021/05/09 07:29:26;;;;;;;1.00;1.00;;;;;;;;;;5070288;28;21003;-64
2021/05/09 07:31:52;;;;;;;1.00;0.90;;;;;;;;;;5071823;28;20431;-64
2021/05/09 07:34:18;;;;;;;1.83;1.53;;;;;;;;;;5071067;28;20904;-64
2021/05/09 07:36:44;;;;;;;1.77;1.00;;;;;;;;;;5070850;28;20397;-64
2021/05/09 07:39:10;;;;;;;1.80;1.20;;;;;;;;;;5070610;28;20413;-64
2021/05/09 07:41:36;;;;;;;1.10;1.10;;;;;;;;;;5070386;28;20410;-64
2021/05/09 07:44:04;;;;;;;0.90;0.90;;;;;;;;;;5070583;28;20455;-64
2021/05/09 07:46:30;;;;;;;2.77;1.60;;;;;;;;;;5070984;28;20440;-64
2021/05/09 07:48:56;;;;;;;1.07;0.97;;;;;;;;;;5069955;28;20997;-64
2021/05/09 07:51:22;;;;;;;2.10;1.30;;;;;;;;;;5071312;28;20412;-64
2021/05/09 07:53:48;;;;;;;1.40;1.30;;;;;;;;;;5070961;28;20444;-64
2021/05/09 07:56:14;;;;;;;1.40;1.30;;;;;;;;;;5071086;28;20402;-63
2021/05/09 07:58:40;;;;;;;1.00;1.00;;;;;;;;;;5071181;28;20409;-64
2021/05/09 08:01:06;;;;;;;0.60;0.60;;;;;;;;;;5070195;28;20372;-64
2021/05/09 08:03:32;;;;;;;1.13;1.13;;;;;;;;;;5070819;28;20955;-64
2021/05/09 08:05:58;;;;;;;2.10;1.13;;;;;;;;;;5070869;28;20409;-63
2021/05/09 08:08:28;;;;;;;0.80;0.80;;;;;;;;;;5070820;28;20450;-64
2021/05/09 08:10:54;;;;;;;1.63;1.53;;;;;;;;;;5070199;28;20513;-64
2021/05/09 08:13:20;;;;;;;0.67;0.67;;;;;;;;;;5070264;28;20786;-64
2021/05/09 08:15:46;;;;;;;0.70;0.67;;;;;;;;;;5070838;28;20706;-64
2021/05/09 08:18:12;;;;;;;1.43;1.00;;;;;;;;;;5070671;28;20413;-64
2021/05/09 08:20:39;;;;;;;1.03;0.90;;;;;;;;;;5069986;28;20820;-64
2021/05/09 08:23:06;;;;;;;0.70;0.70;;;;;;;;;;5070632;28;20406;-65
2021/05/09 08:25:32;;;;;;;0.57;0.57;;;;;;;;;;5070427;28;20384;-64
2021/05/09 08:27:58;;;;;;;0.90;0.70;;;;;;;;;;5070542;28;20420;-64
2021/05/09 08:30:25;;;;;;;1.30;1.03;;;;;;;;;;5069814;28;20417;-61
2021/05/09 08:32:51;;;;;;;0.50;0.50;;;;;;;;;;5070403;28;20430;-62
2021/05/09 08:35:18;;;;;;;0.60;0.50;;;;;;;;;;5070817;28;20413;-62
2021/05/09 08:37:44;;;;;;;0.80;0.70;;;;;;;;;;5069345;28;20402;-63
2021/05/09 08:40:13;;;;;;;0.80;0.80;;;;;;;;;;5069878;28;20448;-63
2021/05/09 08:42:39;;;;;;;0.60;0.57;;;;;;;;;;5070257;28;20963;-63
2021/05/09 08:45:05;;;;;;;0.80;0.80;;;;;;;;;;5070846;28;20782;-63
2021/05/09 08:47:38;;;;;;;0.70;0.70;;;;;;;;;;5070597;28;20405;-63
2021/05/09 08:50:06;;;;;;;1.13;0.80;;;;;;;;;;5075775;28;20482;-63
2021/05/09 08:52:33;;;;;;;1.07;0.83;;;;;;;;;;5090574;28;20447;-62
2021/05/09 08:54:59;;;;;;;0.90;0.80;;;;;;;;;;5092285;28;20784;-63
2021/05/09 08:57:25;;;;;;;0.80;0.80;;;;;;;;;;5094913;28;20446;-64
2021/05/09 08:59:51;;;;;;;1.03;0.70;;;;;;;;;;5093770;28;20414;-63
2021/05/09 09:02:19;;;;;;;0.63;0.60;;;;;;;;;;5094094;28;20795;-63
2021/05/09 09:04:49;;;;;;;0.70;0.60;;;;;;;;;;5094572;28;20438;-63
2021/05/09 09:07:15;;;;;;;0.60;0.60;;;;;;;;;;5094364;28;20412;-63
2021/05/09 09:09:45;;;;;;;1.30;0.83;;;;;;;;;;5082333;28;20479;-63
2021/05/09 09:12:12;;;;;;;1.90;1.10;;;;;;;;;;5073093;28;20429;-63
2021/05/09 09:14:56;;;;;;;1.30;1.20;;;;;;;;;;5054740;28;20409;-63
2021/05/09 09:17:23;;;;;;;0.70;0.70;;;;;;;;;;5073787;28;20402;-63
2021/05/09 09:20:01;;;;;;;0.80;0.80;;;;;;;;;;5087295;28;20439;-64
2021/05/09 09:22:28;;;;;;;2.03;0.60;;;;;;;;;;5093775;28;20435;-64
2021/05/09 09:25:09;;;;;;;1.00;1.00;;;;;;;;;;5093960;28;20400;-61
2021/05/09 09:27:42;;;;;;;0.90;0.60;;;;;;;;;;5093539;28;20419;-63
2021/05/09 09:30:08;;;;;;;0.77;0.70;;;;;;;;;;5092863;28;20826;-63
2021/05/09 09:32:34;;;;;;;0.70;0.70;;;;;;;;;;5093644;28;20795;-63
2021/05/09 09:35:00;;;;;;;0.97;0.90;;;;;;;;;;5093804;28;20411;-63
2021/05/09 09:37:32;;;;;;;1.23;0.80;;;;;;;;;;5093812;28;20396;-63
2021/05/09 09:39:59;;;;;;;1.13;0.90;;;;;;;;;;5092943;28;20408;-63
2021/05/09 09:42:37;;;;;;;0.60;0.60;;;;;;;;;;5093666;28;20435;-63
2021/05/09 09:45:13;;;;;;;0.90;0.60;;;;;;;;;;5093531;28;20417;-63
2021/05/09 09:47:51;;;;;;;1.33;1.20;;;;;;;;;;5092752;28;20959;-63
2021/05/09 09:50:36;;;;;;;0.50;0.50;;;;;;;;;;5092843;28;20417;-63
2021/05/09 09:53:22;;;;;;;0.70;0.60;;;;;;;;;;5093993;28;20815;-63
2021/05/09 09:56:07;;;;;;;0.80;0.70;;;;;;;;;;5093731;28;20438;-63
2021/05/09 09:58:43;;;;;;;0.70;0.70;;;;;;;;;;5093642;28;20408;-63
2021/05/09 10:01:10;;;;;;;0.80;0.80;;;;;;;;;;5093482;28;20415;-64
2021/05/09 10:03:36;;;;;;;0.80;0.80;;;;;;;;;;5093228;28;20451;-63
2021/05/09 10:06:02;;;;;;;0.80;0.80;;;;;;;;;;5093488;28;20402;-64
2021/05/09 10:08:28;;;;;;;0.70;0.70;;;;;;;;;;5093014;28;20488;-63
2021/05/09 10:10:55;;;;;;;0.60;0.60;;;;;;;;;;5092756;28;20496;-63
2021/05/09 10:13:22;;;;;;;1.37;0.93;;;;;;;;;;5093296;28;20424;-63
2021/05/09 10:15:48;;;;;;;0.60;0.60;;;;;;;;;;5093010;28;20423;-62
2021/05/09 10:18:14;;;;;;;0.80;0.60;;;;;;;;;;5093018;28;20401;-63
2021/05/09 10:20:41;;;;;;;0.80;0.80;;;;;;;;;;5092487;28;20407;-63
2021/05/09 10:23:08;;;;;;;0.70;0.50;;;;;;;;;;5093100;28;20428;-63
2021/05/09 10:25:52;;;;;;;0.90;0.67;;;;;;;;;;5093113;28;20514;-63
2021/05/09 10:28:20;;;;;;;0.60;0.50;;;;;;;;;;5092656;28;20535;-63
2021/05/09 10:30:46;;;;;;;1.93;0.83;;;;;;;;;;5092048;28;20922;-63
2021/05/09 10:33:32;;;;;;;0.80;0.80;;;;;;;;;;5092834;28;20425;-62
2021/05/09 10:35:58;;;;;;;0.50;0.40;;;;;;;;;;5092112;28;21110;-63
2021/05/09 10:38:24;;;;;;;1.10;0.80;;;;;;;;;;5082405;28;20417;-63
2021/05/09 10:40:50;;;;;;;0.83;0.83;;;;;;;;;;5071234;28;20437;-64
2021/05/09 10:43:17;;;;;;;0.70;0.63;;;;;;;;;;5072087;28;20847;-63
2021/05/09 10:45:43;;;;;;;0.70;0.70;;;;;;;;;;5072467;28;20492;-63
2021/05/09 10:48:16;;;;;;;1.10;1.00;;;;;;;;;;5072246;28;20402;-63
2021/05/09 10:50:42;;;;;;;0.80;0.70;;;;;;;;;;5071456;28;20493;-63
2021/05/09 10:53:09;;;;;;;0.73;0.73;;;;;;;;;;5071565;28;20532;-63
2021/05/09 10:55:40;;;;;;;0.87;0.87;;;;;;;;;;5071951;28;20407;-63
2021/05/09 10:58:08;;;;;;;0.80;0.80;;;;;;;;;;5071944;28;20398;-63
2021/05/09 11:00:52;;;;;;;0.67;0.67;;;;;;;;;;5071268;28;20410;-63
2021/05/09 11:03:40;;;;;;;1.07;0.67;;;;;;;;;;5072197;28;20976;-63
2021/05/09 11:06:13;;;;;;;0.67;0.67;;;;;;;;;;5071890;28;20405;-63
2021/05/09 11:08:42;;;;;;;0.80;0.50;;;;;;;;;;5071754;28;20461;-63
2021/05/09 11:11:14;;;;;;;0.70;0.60;;;;;;;;;;5071413;28;20401;-63
2021/05/09 11:16:25;;;;;;;0.87;0.77;;;;;;;;;;5071341;28;20408;-63
2021/05/09 11:18:58;;;;;;;0.60;0.60;;;;;;;;;;5070298;28;20496;-63
2021/05/09 11:21:24;;;;;;;0.63;0.63;;;;;;;;;;5071704;28;20417;-63
2021/05/09 11:23:51;;;;;;;0.70;0.60;;;;;;;;;;5071045;28;20417;-63
2021/05/09 11:26:24;;;;;;;0.60;0.60;;;;;;;;;;5071590;28;20896;-64
2021/05/09 11:29:05;;;;;;;0.80;0.73;;;;;;;;;;5070884;28;20465;-63
2021/05/09 11:31:31;;;;;;;1.00;0.87;;;;;;;;;;5071621;28;20401;-63
2021/05/09 11:33:57;;;;;;;0.57;0.57;;;;;;;;;;5071753;28;20406;-64
2021/05/09 11:36:24;;;;;;;1.00;0.87;;;;;;;;;;5071491;28;20432;-63
2021/05/09 11:38:50;;;;;;;0.73;0.73;;;;;;;;;;5071024;28;20416;-63
2021/05/09 11:41:16;;;;;;;1.50;0.57;;;;;;;;;;5071242;28;20405;-63
2021/05/09 11:44:01;;;;;;;0.53;0.53;;;;;;;;;;5069388;28;20772;-63
2021/05/09 11:46:34;;;;;;;0.60;0.60;;;;;;;;;;5071358;28;20413;-62
2021/05/09 11:49:20;;;;;;;0.90;0.60;;;;;;;;;;5070444;28;20455;-62
2021/05/09 11:51:52;;;;;;;0.97;0.70;;;;;;;;;;5071866;28;20541;-63
2021/05/09 11:54:18;;;;;;;0.70;0.60;;;;;;;;;;5071093;28;20405;-62
2021/05/09 11:56:50;;;;;;;0.90;0.90;;;;;;;;;;5071284;28;20412;-63
2021/05/09 11:59:32;;;;;;;0.90;0.90;;;;;;;;;;5070693;28;20891;-62
2021/05/09 12:01:59;;;;;;;0.80;0.70;;;;;;;;;;5071090;28;20780;-62
2021/05/09 12:04:30;;;;;;;0.73;0.53;;;;;;;;;;5071529;28;20411;-62
2021/05/09 12:07:02;;;;;;;0.70;0.70;;;;;;;;;;5070660;28;20687;-62
2021/05/09 12:09:29;;;;;;;0.93;0.60;;;;;;;;;;5070229;28;20569;-62
2021/05/09 12:11:56;;;;;;;0.87;0.60;;;;;;;;;;5070899;28;21206;-64
2021/05/09 12:14:23;;;;;;;0.77;0.77;;;;;;;;;;5071079;28;20383;-64
2021/05/09 12:16:49;;;;;;;1.67;0.67;;;;;;;;;;5070673;28;20410;-64
2021/05/09 12:19:15;;;;;;;0.57;0.57;;;;;;;;;;5070314;28;20417;-64
2021/05/09 12:21:58;;;;;;;0.60;0.60;;;;;;;;;;5070867;28;20885;-64
2021/05/09 12:24:24;;;;;;;0.60;0.57;;;;;;;;;;5070902;28;20853;-63
2021/05/09 12:27:03;;;;;;;0.70;0.57;;;;;;;;;;5070691;28;20413;-63
2021/05/09 12:29:29;;;;;;;1.00;0.80;;;;;;;;;;5070075;28;20832;-63
2021/05/09 12:31:55;;;;;;;0.63;0.63;;;;;;;;;;5074986;28;20421;-63
2021/05/09 12:34:25;;;;;;;0.60;0.60;;;;;;;;;;5074896;28;20384;-64
2021/05/09 12:37:10;;;;;;;0.67;0.67;;;;;;;;;;5074182;28;20438;-64
2021/05/09 12:39:36;;;;;;;0.90;0.60;;;;;;;;;;5074280;28;20437;-64
2021/05/09 12:42:04;;;;;;;0.80;0.80;;;;;;;;;;5074479;28;20411;-64
2021/05/09 12:44:30;;;;;;;1.27;0.90;;;;;;;;;;5074966;28;20376;-64
2021/05/09 12:46:56;;;;;;;1.00;0.57;;;;;;;;;;5074716;28;20408;-63
2021/05/09 12:49:23;;;;;;;1.20;0.90;;;;;;;;;;5073822;28;20439;-64
2021/05/09 12:52:02;;;;;;;1.00;1.00;;;;;;;;;;5074369;28;20882;-64
2021/05/09 12:54:31;;;;;;;1.90;0.77;;;;;;;;;;5074396;28;20915;-63
2021/05/09 12:57:13;;;;;;;0.60;0.60;;;;;;;;;;5074414;28;20392;-64
2021/05/09 13:00:08;;;;;;;0.93;0.67;;;;;;;;;;5074024;28;20417;-64
2021/05/09 13:02:44;;;;;;;0.80;0.60;;;;;;;;;;5071831;28;20447;-63
2021/05/09 13:05:14;;;;;;;0.77;0.60;;;;;;;;;;5074270;28;20445;-63
2021/05/09 13:07:40;;;;;;;1.27;0.93;;;;;;;;;;5073894;28;20438;-63
2021/05/09 13:10:06;;;;;;;0.80;0.70;;;;;;;;;;5073539;28;21009;-64
2021/05/09 13:12:32;;;;;;;0.80;0.80;;;;;;;;;;5088277;28;20428;-63
2021/05/09 13:14:58;;;;;;;1.27;0.70;;;;;;;;;;5080071;28;20415;-64
2021/05/09 13:17:25;;;;;;;4.63;0.60;;;;;;;;;;5073942;28;20433;-63
2021/05/09 13:19:53;;;;;;;0.90;0.60;;;;;;;;;;5072825;28;20437;-63
2021/05/09 13:22:19;;;;;;;0.70;0.60;;;;;;;;;;5073780;28;20429;-63
2021/05/09 13:24:48;;;;;;;0.80;0.60;;;;;;;;;;5073722;28;20414;-63
2021/05/09 13:27:15;;;;;;;1.50;1.10;;;;;;;;;;5073845;28;20409;-62
2021/05/09 13:29:42;;;;;;;0.83;0.83;;;;;;;;;;5073396;28;20459;-62
2021/05/09 13:32:08;;;;;;;4.70;4.17;;;;;;;;;;5072884;28;20429;-62
2021/05/09 13:34:34;;;;;;;1.23;1.00;;;;;;;;;;5073764;28;20443;-62
2021/05/09 13:37:00;;;;;;;1.00;0.90;;;;;;;;;;5073487;28;20885;-63
2021/05/09 13:39:26;;;;;;;0.70;0.60;;;;;;;;;;5072972;28;20476;-62
2021/05/09 13:41:53;;;;;;;1.03;0.60;;;;;;;;;;5072951;28;20408;-62
2021/05/09 13:44:19;;;;;;;1.10;0.77;;;;;;;;;;5073338;28;20406;-62
2021/05/09 13:46:45;;;;;;;0.87;0.70;;;;;;;;;;5072404;28;20436;-63
2021/05/09 13:49:11;;;;;;;0.60;0.60;;;;;;;;;;5072810;28;20524;-62
2021/05/09 13:51:37;;;;;;;0.60;0.60;;;;;;;;;;5073333;28;20410;-63
2021/05/09 13:54:03;;;;;;;0.70;0.70;;;;;;;;;;5073475;28;20459;-63
2021/05/09 13:56:29;;;;;;;0.63;0.60;;;;;;;;;;5072936;28;20885;-62
2021/05/09 13:58:55;;;;;;;2.70;1.07;;;;;;;;;;5072691;28;20464;-62
2021/05/09 14:01:22;;;;;;;0.60;0.60;;;;;;;;;;5073372;28;20410;-63
2021/05/09 14:03:48;;;;;;;1.53;0.80;;;;;;;;;;5074227;28;20423;-62
2021/05/09 14:06:14;;;;;;;0.80;0.80;;;;;;;;;;5073214;28;20406;-62
2021/05/09 14:08:41;;;;;;;0.80;0.80;;;;;;;;;;5072966;28;20953;-62
2021/05/09 14:11:07;;;;;;;1.00;0.87;;;;;;;;;;5072882;28;20403;-62
2021/05/09 14:13:33;;;;;;;0.60;0.60;;;;;;;;;;5073120;28;20430;-63
2021/05/09 14:16:00;;;;;;;0.60;0.50;;;;;;;;;;5073052;28;20376;-62
2021/05/09 14:18:26;;;;;;;1.47;0.70;;;;;;;;;;5072649;28;20436;-62
2021/05/09 14:20:52;;;;;;;1.00;0.70;;;;;;;;;;5071799;28;20388;-62
2021/05/09 14:23:18;;;;;;;0.90;0.63;;;;;;;;;;5072883;28;20510;-62
2021/05/09 14:25:44;;;;;;;0.70;0.70;;;;;;;;;;5072623;28;20410;-63
2021/05/09 14:28:10;;;;;;;0.50;0.40;;;;;;;;;;5072569;28;20409;-62
2021/05/09 14:30:36;;;;;;;0.80;0.80;;;;;;;;;;5071736;28;20485;-62
2021/05/09 14:33:02;;;;;;;0.60;0.60;;;;;;;;;;5072075;28;20517;-62
2021/05/09 14:35:29;;;;;;;0.67;0.57;;;;;;;;;;5072344;28;20384;-62
2021/05/09 14:37:57;;;;;;;1.23;0.63;;;;;;;;;;5072607;28;20402;-61
2021/05/09 14:40:23;;;;;;;0.67;0.67;;;;;;;;;;5071288;28;20402;-63
2021/05/09 14:42:49;;;;;;;0.70;0.70;;;;;;;;;;5072537;28;20440;-62
2021/05/09 14:45:16;;;;;;;0.70;0.70;;;;;;;;;;5072636;28;20417;-62
2021/05/09 14:47:42;;;;;;;1.90;0.63;;;;;;;;;;5072565;28;20383;-63